X  Κλείσε Στοιχεία αεροπορικών μετεωρολογικών δεδομένων METAR     EDVE Braunschweig-Wolfsburg Airport
θερμοκρασία
13°C θερμοκρασία
10°C Σημείο δρόσου
82% Υγρασία



Ανεμος
8 KM/H
5 MPH
2 M/S
4 KTS



150°
NNA
Τρέχουσες συνθήκες

Νεφελώδης Νεφελώδης
πίεση 1006.92 (hPa) - 29.73 (inHg)
Ορατότητα 6.2 (μίλι) - 10 (km)
Aεροδρόμιο
Κωδικός αεροδρομίου EDVE

Τοποθεσία: Braunschweig-Wolfsburg Airport
Απόσταση: 35 (km)

Metar:
EDVE 211020Z 15004KT 9999 OVC042 13/10 Q1007

ώρα: 21-10-2020 12:20 CEST